Hlavní strana
METAR-TAF:

METAR-TAF

Letiště :

Hammerfest, Norsko

zeměpisná šířka: 70-40N, zeměpisná délka: 023-40E, výška: 8 m

Aktuální stav počasí

Zpráva byla vytvořena před 33 minutami, v 22:20 UTC
Severovýchodní vítr 8 kt
Teplota 8°C
Vlhkost vzduchu 71%
Tlak 1028 hPa
Viditelnost 10 km a více
Žádná oblačnost pod 1500 m, nevyskytují se cumulonimby.

METAR: ENHF 252220Z 04008KT CAVOK 08/03 Q1028 RMK WIND 1254FT 10007KT

Čas: 00:53 (22:53 UTC)

Předpověď počasí

Zpráva byla vytvořena před 2 hodinami a 53 minutami, v 20:00 UTC
Předpověď platná od 25 v 21 UTC do 26 v 06 UTC
Jihojihozápadní vítr 5 kt
Viditelnost 10 km a více
Žádná oblačnost pod 1500 m, nevyskytují se cumulonimby.

TAF: ENHF 252000Z 2521/2606 21005KT CAVOK

Stav a předpovědi počasí z více než 4 000 letišť (zprávy METAR a TAF).

Červené a žluté tečky na mapě představují dostupné meteorologické stanice.

Když kurzor umístíte na tečku, zobrazí se název stanice.

Pak kliknutím zobrazíte stav a předpověď počasí.

Chcete-li změnit mapu, kliknutím na zelené tlačítko se znaménkem +mapu přiblížíte, kliknutím na zelené tlačítko se znaménkem – mapu oddálíte a kliknutím na zelené šipky přejdete na sousední mapy.


METAR-TAF: